sensor_id;sensor_type;location;lat;lon;timestamp;P1;durP1;ratioP1;P2;durP2;ratioP2
291;SDS011;23311;48.776;9.162;2022-07-29T00:00:22;8.90;;;7.17;;
291;SDS011;23311;48.776;9.162;2022-07-29T00:02:50;7.37;;;6.97;;
291;SDS011;23311;48.776;9.162;2022-07-29T00:05:18;6.77;;;6.37;;
291;SDS011;23311;48.776;9.162;2022-07-29T00:07:46;7.30;;;6.90;;
291;SDS011;23311;48.776;9.162;2022-07-29T00:10:14;7.73;;;7.33;;
291;SDS011;23311;48.776;9.162;2022-07-29T00:12:42;7.80;;;7.40;;
291;SDS011;23311;48.776;9.162;2022-07-29T00:15:12;8.67;;;7.40;;
291;SDS011;23311;48.776;9.162;2022-07-29T00:17:40;7.80;;;7.40;;
291;SDS011;23311;48.776;9.162;2022-07-29T00:20:09;7.60;;;7.10;;
291;SDS011;23311;48.776;9.162;2022-07-29T00:22:37;8.13;;;7.63;;
291;SDS011;23311;48.776;9.162;2022-07-29T00:25:06;7.70;;;7.30;;
291;SDS011;23311;48.776;9.162;2022-07-29T00:27:35;7.90;;;7.50;;
291;SDS011;23311;48.776;9.162;2022-07-29T00:30:04;6.97;;;6.57;;
291;SDS011;23311;48.776;9.162;2022-07-29T00:32:35;8.33;;;7.90;;
291;SDS011;23311;48.776;9.162;2022-07-29T00:35:03;7.97;;;7.50;;
291;SDS011;23311;48.776;9.162;2022-07-29T00:37:52;8.00;;;7.60;;
291;SDS011;23311;48.776;9.162;2022-07-29T00:40:20;8.13;;;7.73;;
291;SDS011;23311;48.776;9.162;2022-07-29T00:42:49;7.97;;;6.73;;
291;SDS011;23311;48.776;9.162;2022-07-29T00:45:18;8.20;;;7.80;;
291;SDS011;23311;48.776;9.162;2022-07-29T00:47:49;7.37;;;6.97;;
291;SDS011;23311;48.776;9.162;2022-07-29T00:50:17;7.20;;;6.80;;
291;SDS011;23311;48.776;9.162;2022-07-29T00:52:46;7.50;;;7.10;;
291;SDS011;23311;48.776;9.162;2022-07-29T00:55:15;7.63;;;7.23;;
291;SDS011;23311;48.776;9.162;2022-07-29T00:57:43;7.03;;;6.63;;
291;SDS011;23311;48.776;9.162;2022-07-29T01:00:13;6.93;;;6.53;;
291;SDS011;23311;48.776;9.162;2022-07-29T01:02:43;6.97;;;6.57;;
291;SDS011;23311;48.776;9.162;2022-07-29T01:05:15;7.50;;;7.10;;
291;SDS011;23311;48.776;9.162;2022-07-29T01:07:45;7.43;;;7.03;;
291;SDS011;23311;48.776;9.162;2022-07-29T01:10:15;6.80;;;6.40;;
291;SDS011;23311;48.776;9.162;2022-07-29T01:12:46;7.87;;;7.47;;
291;SDS011;23311;48.776;9.162;2022-07-29T01:15:17;6.80;;;6.40;;
291;SDS011;23311;48.776;9.162;2022-07-29T01:17:46;6.43;;;6.07;;
291;SDS011;23311;48.776;9.162;2022-07-29T01:20:24;6.57;;;6.17;;
291;SDS011;23311;48.776;9.162;2022-07-29T01:23:01;7.13;;;6.73;;
291;SDS011;23311;48.776;9.162;2022-07-29T01:26:11;7.53;;;7.13;;
291;SDS011;23311;48.776;9.162;2022-07-29T01:29:00;7.17;;;6.77;;
291;SDS011;23311;48.776;9.162;2022-07-29T01:31:35;7.40;;;7.00;;
291;SDS011;23311;48.776;9.162;2022-07-29T01:34:25;7.23;;;6.83;;
291;SDS011;23311;48.776;9.162;2022-07-29T01:37:01;6.83;;;6.43;;
291;SDS011;23311;48.776;9.162;2022-07-29T01:39:35;7.37;;;6.97;;
291;SDS011;23311;48.776;9.162;2022-07-29T01:42:06;5.73;;;5.43;;
291;SDS011;23311;48.776;9.162;2022-07-29T01:44:45;7.90;;;6.20;;
291;SDS011;23311;48.776;9.162;2022-07-29T01:47:19;6.03;;;5.73;;
291;SDS011;23311;48.776;9.162;2022-07-29T01:49:51;6.50;;;6.10;;
291;SDS011;23311;48.776;9.162;2022-07-29T01:52:26;6.43;;;6.03;;
291;SDS011;23311;48.776;9.162;2022-07-29T01:55:04;7.17;;;6.23;;
291;SDS011;23311;48.776;9.162;2022-07-29T01:57:36;5.70;;;5.40;;
291;SDS011;23311;48.776;9.162;2022-07-29T02:00:09;7.00;;;6.60;;
291;SDS011;23311;48.776;9.162;2022-07-29T02:02:40;6.57;;;6.17;;
291;SDS011;23311;48.776;9.162;2022-07-29T02:05:11;6.20;;;5.90;;
291;SDS011;23311;48.776;9.162;2022-07-29T02:07:42;6.73;;;6.33;;
291;SDS011;23311;48.776;9.162;2022-07-29T02:10:12;8.10;;;7.07;;
291;SDS011;23311;48.776;9.162;2022-07-29T02:12:43;7.03;;;6.13;;
291;SDS011;23311;48.776;9.162;2022-07-29T02:15:18;6.47;;;6.07;;
291;SDS011;23311;48.776;9.162;2022-07-29T02:17:49;6.53;;;6.13;;
291;SDS011;23311;48.776;9.162;2022-07-29T02:20:20;6.80;;;6.40;;
291;SDS011;23311;48.776;9.162;2022-07-29T02:22:51;6.33;;;5.97;;
291;SDS011;23311;48.776;9.162;2022-07-29T02:25:22;6.10;;;5.80;;
291;SDS011;23311;48.776;9.162;2022-07-29T02:28:02;6.00;;;5.70;;
291;SDS011;23311;48.776;9.162;2022-07-29T02:30:34;5.50;;;5.20;;
291;SDS011;23311;48.776;9.162;2022-07-29T02:33:06;5.73;;;5.43;;
291;SDS011;23311;48.776;9.162;2022-07-29T02:35:36;6.10;;;5.80;;
291;SDS011;23311;48.776;9.162;2022-07-29T02:38:06;5.00;;;4.70;;
291;SDS011;23311;48.776;9.162;2022-07-29T02:40:53;6.20;;;5.40;;
291;SDS011;23311;48.776;9.162;2022-07-29T02:43:24;5.27;;;4.97;;
291;SDS011;23311;48.776;9.162;2022-07-29T02:45:54;4.90;;;4.60;;
291;SDS011;23311;48.776;9.162;2022-07-29T02:48:25;5.07;;;4.77;;
291;SDS011;23311;48.776;9.162;2022-07-29T02:51:01;5.13;;;4.83;;
291;SDS011;23311;48.776;9.162;2022-07-29T02:53:38;5.00;;;4.70;;
291;SDS011;23311;48.776;9.162;2022-07-29T02:56:10;5.90;;;5.60;;
291;SDS011;23311;48.776;9.162;2022-07-29T02:58:42;6.73;;;5.90;;
291;SDS011;23311;48.776;9.162;2022-07-29T03:01:20;6.10;;;5.13;;
291;SDS011;23311;48.776;9.162;2022-07-29T03:03:51;5.27;;;4.97;;
291;SDS011;23311;48.776;9.162;2022-07-29T03:06:21;6.80;;;6.40;;
291;SDS011;23311;48.776;9.162;2022-07-29T03:09:03;5.83;;;5.53;;
291;SDS011;23311;48.776;9.162;2022-07-29T03:11:39;5.50;;;5.20;;
291;SDS011;23311;48.776;9.162;2022-07-29T03:14:16;5.20;;;4.90;;
291;SDS011;23311;48.776;9.162;2022-07-29T03:16:48;5.60;;;4.70;;
291;SDS011;23311;48.776;9.162;2022-07-29T03:19:17;5.47;;;5.17;;
291;SDS011;23311;48.776;9.162;2022-07-29T03:21:46;5.57;;;5.27;;
291;SDS011;23311;48.776;9.162;2022-07-29T03:24:25;6.27;;;5.93;;
291;SDS011;23311;48.776;9.162;2022-07-29T03:26:54;5.37;;;5.07;;
291;SDS011;23311;48.776;9.162;2022-07-29T03:29:23;5.90;;;5.60;;
291;SDS011;23311;48.776;9.162;2022-07-29T03:32:00;5.70;;;5.40;;
291;SDS011;23311;48.776;9.162;2022-07-29T03:34:34;7.57;;;5.53;;
291;SDS011;23311;48.776;9.162;2022-07-29T03:37:03;5.30;;;5.00;;
291;SDS011;23311;48.776;9.162;2022-07-29T03:39:34;5.57;;;5.13;;
291;SDS011;23311;48.776;9.162;2022-07-29T03:42:05;5.47;;;5.17;;
291;SDS011;23311;48.776;9.162;2022-07-29T03:44:36;5.57;;;5.27;;
291;SDS011;23311;48.776;9.162;2022-07-29T03:47:07;5.13;;;4.90;;
291;SDS011;23311;48.776;9.162;2022-07-29T03:49:37;6.40;;;6.00;;
291;SDS011;23311;48.776;9.162;2022-07-29T03:52:07;5.63;;;5.33;;
291;SDS011;23311;48.776;9.162;2022-07-29T03:54:36;5.57;;;5.27;;
291;SDS011;23311;48.776;9.162;2022-07-29T03:57:04;5.30;;;4.77;;
291;SDS011;23311;48.776;9.162;2022-07-29T03:59:33;6.20;;;5.93;;
291;SDS011;23311;48.776;9.162;2022-07-29T04:02:04;5.53;;;5.23;;
291;SDS011;23311;48.776;9.162;2022-07-29T04:04:35;5.50;;;5.20;;
291;SDS011;23311;48.776;9.162;2022-07-29T04:07:03;5.57;;;5.27;;
291;SDS011;23311;48.776;9.162;2022-07-29T04:09:31;4.67;;;4.37;;
291;SDS011;23311;48.776;9.162;2022-07-29T04:11:59;5.10;;;4.80;;
291;SDS011;23311;48.776;9.162;2022-07-29T04:14:30;5.50;;;5.20;;
291;SDS011;23311;48.776;9.162;2022-07-29T04:16:59;5.13;;;4.83;;
291;SDS011;23311;48.776;9.162;2022-07-29T04:19:28;5.27;;;4.97;;
291;SDS011;23311;48.776;9.162;2022-07-29T04:21:57;5.40;;;5.17;;
291;SDS011;23311;48.776;9.162;2022-07-29T04:24:26;4.87;;;4.60;;
291;SDS011;23311;48.776;9.162;2022-07-29T04:26:55;5.43;;;5.13;;
291;SDS011;23311;48.776;9.162;2022-07-29T04:29:23;4.87;;;4.57;;
291;SDS011;23311;48.776;9.162;2022-07-29T04:31:51;5.47;;;4.77;;
291;SDS011;23311;48.776;9.162;2022-07-29T04:34:19;5.67;;;5.30;;
291;SDS011;23311;48.776;9.162;2022-07-29T04:36:47;4.40;;;4.10;;
291;SDS011;23311;48.776;9.162;2022-07-29T04:39:16;4.60;;;4.30;;
291;SDS011;23311;48.776;9.162;2022-07-29T04:41:48;5.23;;;4.70;;
291;SDS011;23311;48.776;9.162;2022-07-29T04:44:20;4.40;;;4.10;;
291;SDS011;23311;48.776;9.162;2022-07-29T04:46:54;4.73;;;4.43;;
291;SDS011;23311;48.776;9.162;2022-07-29T04:49:22;4.80;;;4.50;;
291;SDS011;23311;48.776;9.162;2022-07-29T04:51:51;5.13;;;4.30;;
291;SDS011;23311;48.776;9.162;2022-07-29T04:54:21;4.00;;;3.80;;
291;SDS011;23311;48.776;9.162;2022-07-29T04:56:50;3.70;;;3.50;;
291;SDS011;23311;48.776;9.162;2022-07-29T04:59:18;5.20;;;4.53;;
291;SDS011;23311;48.776;9.162;2022-07-29T05:01:47;5.13;;;4.43;;
291;SDS011;23311;48.776;9.162;2022-07-29T05:04:15;4.00;;;3.80;;
291;SDS011;23311;48.776;9.162;2022-07-29T05:06:44;4.93;;;4.30;;
291;SDS011;23311;48.776;9.162;2022-07-29T05:09:12;3.77;;;3.50;;
291;SDS011;23311;48.776;9.162;2022-07-29T05:11:41;3.73;;;3.53;;
291;SDS011;23311;48.776;9.162;2022-07-29T05:14:09;4.77;;;3.93;;
291;SDS011;23311;48.776;9.162;2022-07-29T05:16:37;4.73;;;4.43;;
291;SDS011;23311;48.776;9.162;2022-07-29T05:19:06;3.73;;;3.53;;
291;SDS011;23311;48.776;9.162;2022-07-29T05:21:39;3.23;;;3.03;;
291;SDS011;23311;48.776;9.162;2022-07-29T05:24:08;3.30;;;3.10;;
291;SDS011;23311;48.776;9.162;2022-07-29T05:26:36;5.63;;;3.77;;
291;SDS011;23311;48.776;9.162;2022-07-29T05:29:05;3.40;;;3.20;;
291;SDS011;23311;48.776;9.162;2022-07-29T05:31:53;3.37;;;3.20;;
291;SDS011;23311;48.776;9.162;2022-07-29T05:34:21;3.13;;;2.93;;
291;SDS011;23311;48.776;9.162;2022-07-29T05:36:50;4.53;;;2.50;;
291;SDS011;23311;48.776;9.162;2022-07-29T05:39:18;3.17;;;2.80;;
291;SDS011;23311;48.776;9.162;2022-07-29T05:41:46;3.10;;;2.90;;
291;SDS011;23311;48.776;9.162;2022-07-29T05:44:18;2.80;;;2.60;;
291;SDS011;23311;48.776;9.162;2022-07-29T05:46:50;3.37;;;2.70;;
291;SDS011;23311;48.776;9.162;2022-07-29T05:49:18;3.17;;;2.97;;
291;SDS011;23311;48.776;9.162;2022-07-29T05:51:52;2.53;;;2.40;;
291;SDS011;23311;48.776;9.162;2022-07-29T05:54:21;3.37;;;3.17;;
291;SDS011;23311;48.776;9.162;2022-07-29T05:56:49;2.77;;;2.57;;
291;SDS011;23311;48.776;9.162;2022-07-29T05:59:18;3.20;;;3.00;;
291;SDS011;23311;48.776;9.162;2022-07-29T06:01:52;2.43;;;2.27;;
291;SDS011;23311;48.776;9.162;2022-07-29T06:04:21;3.30;;;2.93;;
291;SDS011;23311;48.776;9.162;2022-07-29T06:06:49;3.00;;;2.80;;
291;SDS011;23311;48.776;9.162;2022-07-29T06:09:17;3.10;;;2.70;;
291;SDS011;23311;48.776;9.162;2022-07-29T06:11:45;2.93;;;2.40;;
291;SDS011;23311;48.776;9.162;2022-07-29T06:14:13;3.93;;;2.70;;
291;SDS011;23311;48.776;9.162;2022-07-29T06:16:43;3.40;;;3.20;;
291;SDS011;23311;48.776;9.162;2022-07-29T06:19:11;5.90;;;3.33;;
291;SDS011;23311;48.776;9.162;2022-07-29T06:21:41;4.50;;;4.20;;
291;SDS011;23311;48.776;9.162;2022-07-29T06:24:10;3.83;;;3.37;;
291;SDS011;23311;48.776;9.162;2022-07-29T06:26:39;3.50;;;3.30;;
291;SDS011;23311;48.776;9.162;2022-07-29T06:29:07;4.07;;;2.73;;
291;SDS011;23311;48.776;9.162;2022-07-29T06:31:37;3.80;;;3.60;;
291;SDS011;23311;48.776;9.162;2022-07-29T06:34:06;3.40;;;3.20;;
291;SDS011;23311;48.776;9.162;2022-07-29T06:36:36;3.60;;;2.93;;
291;SDS011;23311;48.776;9.162;2022-07-29T06:39:06;6.53;;;3.30;;
291;SDS011;23311;48.776;9.162;2022-07-29T06:41:37;3.67;;;3.57;;
291;SDS011;23311;48.776;9.162;2022-07-29T06:44:05;3.70;;;3.27;;
291;SDS011;23311;48.776;9.162;2022-07-29T06:46:33;5.73;;;4.03;;
291;SDS011;23311;48.776;9.162;2022-07-29T06:49:01;3.83;;;3.60;;
291;SDS011;23311;48.776;9.162;2022-07-29T06:51:31;3.57;;;3.20;;
291;SDS011;23311;48.776;9.162;2022-07-29T06:53:59;4.23;;;3.97;;
291;SDS011;23311;48.776;9.162;2022-07-29T06:56:32;4.13;;;3.20;;
291;SDS011;23311;48.776;9.162;2022-07-29T06:59:06;3.97;;;3.77;;
291;SDS011;23311;48.776;9.162;2022-07-29T07:01:35;5.20;;;3.37;;
291;SDS011;23311;48.776;9.162;2022-07-29T07:04:03;3.73;;;3.53;;
291;SDS011;23311;48.776;9.162;2022-07-29T07:06:33;4.10;;;3.90;;
291;SDS011;23311;48.776;9.162;2022-07-29T07:09:01;3.47;;;3.27;;
291;SDS011;23311;48.776;9.162;2022-07-29T07:11:29;3.60;;;3.40;;
291;SDS011;23311;48.776;9.162;2022-07-29T07:13:58;3.30;;;3.10;;
291;SDS011;23311;48.776;9.162;2022-07-29T07:16:51;3.80;;;3.60;;
291;SDS011;23311;48.776;9.162;2022-07-29T07:19:20;4.13;;;3.90;;
291;SDS011;23311;48.776;9.162;2022-07-29T07:21:49;5.07;;;4.77;;
291;SDS011;23311;48.776;9.162;2022-07-29T07:24:17;4.17;;;3.93;;
291;SDS011;23311;48.776;9.162;2022-07-29T07:26:45;3.80;;;3.60;;
291;SDS011;23311;48.776;9.162;2022-07-29T07:29:14;3.50;;;3.30;;
291;SDS011;23311;48.776;9.162;2022-07-29T07:31:42;4.43;;;4.03;;
291;SDS011;23311;48.776;9.162;2022-07-29T07:34:10;3.77;;;3.57;;
291;SDS011;23311;48.776;9.162;2022-07-29T07:36:39;3.90;;;3.70;;
291;SDS011;23311;48.776;9.162;2022-07-29T07:39:08;3.83;;;3.63;;
291;SDS011;23311;48.776;9.162;2022-07-29T07:41:36;4.30;;;4.00;;
291;SDS011;23311;48.776;9.162;2022-07-29T07:44:04;4.60;;;4.30;;
291;SDS011;23311;48.776;9.162;2022-07-29T07:46:32;3.67;;;3.47;;
291;SDS011;23311;48.776;9.162;2022-07-29T07:49:01;3.70;;;3.50;;
291;SDS011;23311;48.776;9.162;2022-07-29T07:51:29;3.73;;;3.53;;
291;SDS011;23311;48.776;9.162;2022-07-29T07:53:57;3.77;;;3.33;;
291;SDS011;23311;48.776;9.162;2022-07-29T07:56:27;4.30;;;4.00;;
291;SDS011;23311;48.776;9.162;2022-07-29T07:59:00;4.70;;;4.40;;
291;SDS011;23311;48.776;9.162;2022-07-29T08:01:28;4.97;;;4.67;;
291;SDS011;23311;48.776;9.162;2022-07-29T08:04:16;4.03;;;3.83;;
291;SDS011;23311;48.776;9.162;2022-07-29T08:06:52;4.33;;;4.03;;
291;SDS011;23311;48.776;9.162;2022-07-29T08:09:21;4.40;;;4.10;;
291;SDS011;23311;48.776;9.162;2022-07-29T08:11:57;3.87;;;3.67;;
291;SDS011;23311;48.776;9.162;2022-07-29T08:14:25;3.70;;;3.50;;
291;SDS011;23311;48.776;9.162;2022-07-29T08:16:53;6.60;;;4.20;;
291;SDS011;23311;48.776;9.162;2022-07-29T08:19:22;4.57;;;4.27;;
291;SDS011;23311;48.776;9.162;2022-07-29T08:21:50;4.60;;;4.30;;
291;SDS011;23311;48.776;9.162;2022-07-29T08:24:20;3.83;;;3.63;;
291;SDS011;23311;48.776;9.162;2022-07-29T08:27:12;4.10;;;3.90;;
291;SDS011;23311;48.776;9.162;2022-07-29T08:30:00;4.40;;;4.10;;
291;SDS011;23311;48.776;9.162;2022-07-29T08:32:29;4.07;;;3.87;;
291;SDS011;23311;48.776;9.162;2022-07-29T08:35:17;4.50;;;3.87;;
291;SDS011;23311;48.776;9.162;2022-07-29T08:37:45;4.70;;;4.40;;
291;SDS011;23311;48.776;9.162;2022-07-29T08:40:14;4.33;;;4.03;;
291;SDS011;23311;48.776;9.162;2022-07-29T08:42:43;5.30;;;4.83;;
291;SDS011;23311;48.776;9.162;2022-07-29T08:45:11;5.20;;;4.33;;
291;SDS011;23311;48.776;9.162;2022-07-29T08:47:40;4.50;;;4.20;;
291;SDS011;23311;48.776;9.162;2022-07-29T08:50:08;4.10;;;3.90;;
291;SDS011;23311;48.776;9.162;2022-07-29T08:52:37;4.40;;;4.10;;
291;SDS011;23311;48.776;9.162;2022-07-29T08:55:08;5.30;;;4.40;;
291;SDS011;23311;48.776;9.162;2022-07-29T08:57:37;5.13;;;4.83;;
291;SDS011;23311;48.776;9.162;2022-07-29T09:00:20;4.47;;;4.17;;
291;SDS011;23311;48.776;9.162;2022-07-29T09:02:50;4.73;;;4.43;;
291;SDS011;23311;48.776;9.162;2022-07-29T09:05:24;5.10;;;4.80;;
291;SDS011;23311;48.776;9.162;2022-07-29T09:07:53;5.80;;;5.00;;
291;SDS011;23311;48.776;9.162;2022-07-29T09:10:21;5.03;;;4.23;;
291;SDS011;23311;48.776;9.162;2022-07-29T09:12:50;5.10;;;4.80;;
291;SDS011;23311;48.776;9.162;2022-07-29T09:15:20;4.60;;;4.30;;
291;SDS011;23311;48.776;9.162;2022-07-29T09:17:48;5.03;;;4.70;;
291;SDS011;23311;48.776;9.162;2022-07-29T09:20:17;4.50;;;4.13;;
291;SDS011;23311;48.776;9.162;2022-07-29T09:22:46;5.10;;;4.80;;
291;SDS011;23311;48.776;9.162;2022-07-29T09:25:32;4.80;;;4.50;;
291;SDS011;23311;48.776;9.162;2022-07-29T09:28:07;4.90;;;4.60;;
291;SDS011;23311;48.776;9.162;2022-07-29T09:30:37;4.83;;;4.53;;
291;SDS011;23311;48.776;9.162;2022-07-29T09:33:17;5.67;;;5.37;;
291;SDS011;23311;48.776;9.162;2022-07-29T09:35:46;5.07;;;4.77;;
291;SDS011;23311;48.776;9.162;2022-07-29T09:38:27;5.40;;;4.73;;
291;SDS011;23311;48.776;9.162;2022-07-29T09:40:55;6.33;;;4.90;;
291;SDS011;23311;48.776;9.162;2022-07-29T09:43:30;5.50;;;5.00;;
291;SDS011;23311;48.776;9.162;2022-07-29T09:46:10;9.67;;;4.57;;
291;SDS011;23311;48.776;9.162;2022-07-29T09:48:38;7.07;;;4.37;;
291;SDS011;23311;48.776;9.162;2022-07-29T09:51:16;4.90;;;4.60;;
291;SDS011;23311;48.776;9.162;2022-07-29T09:53:47;5.67;;;5.37;;
291;SDS011;23311;48.776;9.162;2022-07-29T09:56:18;4.97;;;4.67;;
291;SDS011;23311;48.776;9.162;2022-07-29T09:58:47;8.00;;;5.50;;
291;SDS011;23311;48.776;9.162;2022-07-29T10:01:16;5.13;;;4.83;;
291;SDS011;23311;48.776;9.162;2022-07-29T10:03:55;5.17;;;4.83;;
291;SDS011;23311;48.776;9.162;2022-07-29T10:06:23;7.30;;;5.50;;
291;SDS011;23311;48.776;9.162;2022-07-29T10:08:51;5.70;;;5.40;;
291;SDS011;23311;48.776;9.162;2022-07-29T10:11:20;5.80;;;5.50;;
291;SDS011;23311;48.776;9.162;2022-07-29T10:13:48;5.70;;;5.40;;
291;SDS011;23311;48.776;9.162;2022-07-29T10:16:17;5.43;;;5.13;;
291;SDS011;23311;48.776;9.162;2022-07-29T10:18:46;5.87;;;5.57;;
291;SDS011;23311;48.776;9.162;2022-07-29T10:21:14;4.90;;;4.60;;
291;SDS011;23311;48.776;9.162;2022-07-29T10:24:00;6.00;;;5.70;;
291;SDS011;23311;48.776;9.162;2022-07-29T10:26:29;7.00;;;6.47;;
291;SDS011;23311;48.776;9.162;2022-07-29T10:28:57;5.63;;;5.30;;
291;SDS011;23311;48.776;9.162;2022-07-29T10:31:28;6.00;;;5.70;;
291;SDS011;23311;48.776;9.162;2022-07-29T10:34:04;6.60;;;5.73;;
291;SDS011;23311;48.776;9.162;2022-07-29T10:36:46;5.83;;;5.53;;
291;SDS011;23311;48.776;9.162;2022-07-29T10:39:36;5.90;;;5.60;;
291;SDS011;23311;48.776;9.162;2022-07-29T10:42:17;6.67;;;5.83;;
291;SDS011;23311;48.776;9.162;2022-07-29T10:44:59;5.60;;;5.30;;
291;SDS011;23311;48.776;9.162;2022-07-29T10:47:32;5.80;;;5.50;;
291;SDS011;23311;48.776;9.162;2022-07-29T10:50:02;5.70;;;5.40;;
291;SDS011;23311;48.776;9.162;2022-07-29T10:52:52;6.70;;;5.80;;
291;SDS011;23311;48.776;9.162;2022-07-29T10:55:30;7.50;;;6.47;;
291;SDS011;23311;48.776;9.162;2022-07-29T10:58:15;7.03;;;6.63;;
291;SDS011;23311;48.776;9.162;2022-07-29T11:00:48;7.27;;;6.87;;
291;SDS011;23311;48.776;9.162;2022-07-29T11:09:34;8.63;;;8.10;;
291;SDS011;23311;48.776;9.162;2022-07-29T11:12:04;10.10;;;8.77;;
291;SDS011;23311;48.776;9.162;2022-07-29T11:14:56;13.87;;;11.13;;
291;SDS011;23311;48.776;9.162;2022-07-29T11:17:27;15.17;;;12.80;;
291;SDS011;23311;48.776;9.162;2022-07-29T11:20:40;17.83;;;13.30;;
291;SDS011;23311;48.776;9.162;2022-07-29T11:23:24;14.87;;;14.10;;
291;SDS011;23311;48.776;9.162;2022-07-29T11:28:51;14.30;;;13.60;;
291;SDS011;23311;48.776;9.162;2022-07-29T11:31:32;14.47;;;13.77;;
291;SDS011;23311;48.776;9.162;2022-07-29T11:34:18;12.30;;;11.70;;
291;SDS011;23311;48.776;9.162;2022-07-29T11:42:55;12.27;;;11.67;;
291;SDS011;23311;48.776;9.162;2022-07-29T11:45:25;12.63;;;11.20;;
291;SDS011;23311;48.776;9.162;2022-07-29T11:48:17;11.63;;;11.03;;
291;SDS011;23311;48.776;9.162;2022-07-29T11:50:57;11.13;;;10.53;;
291;SDS011;23311;48.776;9.162;2022-07-29T11:53:27;12.77;;;12.07;;
291;SDS011;23311;48.776;9.162;2022-07-29T11:55:59;10.60;;;10.03;;
291;SDS011;23311;48.776;9.162;2022-07-29T11:58:29;12.17;;;11.57;;
291;SDS011;23311;48.776;9.162;2022-07-29T12:00:57;11.67;;;11.07;;
291;SDS011;23311;48.776;9.162;2022-07-29T12:03:33;12.47;;;11.10;;
291;SDS011;23311;48.776;9.162;2022-07-29T12:06:03;11.57;;;10.97;;
291;SDS011;23311;48.776;9.162;2022-07-29T12:08:42;9.03;;;8.53;;
291;SDS011;23311;48.776;9.162;2022-07-29T12:11:17;9.70;;;9.20;;
291;SDS011;23311;48.776;9.162;2022-07-29T12:13:48;11.13;;;10.50;;
291;SDS011;23311;48.776;9.162;2022-07-29T12:16:17;8.23;;;7.83;;
291;SDS011;23311;48.776;9.162;2022-07-29T12:18:55;7.90;;;7.50;;
291;SDS011;23311;48.776;9.162;2022-07-29T12:21:25;7.53;;;7.13;;
291;SDS011;23311;48.776;9.162;2022-07-29T12:23:56;6.83;;;6.43;;
291;SDS011;23311;48.776;9.162;2022-07-29T12:26:34;6.90;;;6.03;;
291;SDS011;23311;48.776;9.162;2022-07-29T12:29:05;8.63;;;5.97;;
291;SDS011;23311;48.776;9.162;2022-07-29T12:31:40;5.37;;;5.07;;
291;SDS011;23311;48.776;9.162;2022-07-29T12:34:11;6.40;;;6.00;;
291;SDS011;23311;48.776;9.162;2022-07-29T12:36:41;5.73;;;5.47;;
291;SDS011;23311;48.776;9.162;2022-07-29T12:39:11;8.10;;;6.37;;
291;SDS011;23311;48.776;9.162;2022-07-29T12:41:40;6.40;;;6.00;;
291;SDS011;23311;48.776;9.162;2022-07-29T12:44:08;6.40;;;6.00;;
291;SDS011;23311;48.776;9.162;2022-07-29T12:46:36;6.53;;;6.13;;
291;SDS011;23311;48.776;9.162;2022-07-29T12:49:05;6.10;;;5.80;;
291;SDS011;23311;48.776;9.162;2022-07-29T12:51:33;8.83;;;5.97;;
291;SDS011;23311;48.776;9.162;2022-07-29T12:54:04;6.03;;;5.73;;
291;SDS011;23311;48.776;9.162;2022-07-29T12:56:35;6.33;;;5.97;;
291;SDS011;23311;48.776;9.162;2022-07-29T12:59:11;7.70;;;6.03;;
291;SDS011;23311;48.776;9.162;2022-07-29T13:01:42;8.03;;;7.63;;
291;SDS011;23311;48.776;9.162;2022-07-29T13:04:10;7.93;;;6.33;;
291;SDS011;23311;48.776;9.162;2022-07-29T13:06:39;6.77;;;6.37;;
291;SDS011;23311;48.776;9.162;2022-07-29T13:09:12;6.47;;;6.07;;
291;SDS011;23311;48.776;9.162;2022-07-29T13:11:43;6.83;;;6.43;;
291;SDS011;23311;48.776;9.162;2022-07-29T13:14:14;6.70;;;6.30;;
291;SDS011;23311;48.776;9.162;2022-07-29T13:17:02;7.23;;;6.83;;
291;SDS011;23311;48.776;9.162;2022-07-29T13:19:35;7.10;;;6.70;;
291;SDS011;23311;48.776;9.162;2022-07-29T13:22:04;9.63;;;8.53;;
291;SDS011;23311;48.776;9.162;2022-07-29T13:24:33;9.57;;;9.07;;
291;SDS011;23311;48.776;9.162;2022-07-29T13:27:02;10.27;;;9.77;;
291;SDS011;23311;48.776;9.162;2022-07-29T13:29:31;7.90;;;7.50;;
291;SDS011;23311;48.776;9.162;2022-07-29T13:31:59;8.60;;;7.97;;
291;SDS011;23311;48.776;9.162;2022-07-29T13:34:27;9.53;;;8.70;;
291;SDS011;23311;48.776;9.162;2022-07-29T13:36:55;8.20;;;7.77;;
291;SDS011;23311;48.776;9.162;2022-07-29T13:39:23;9.13;;;7.93;;
291;SDS011;23311;48.776;9.162;2022-07-29T13:41:51;9.00;;;8.50;;
291;SDS011;23311;48.776;9.162;2022-07-29T13:44:22;9.40;;;8.90;;
291;SDS011;23311;48.776;9.162;2022-07-29T13:46:52;10.17;;;9.70;;
291;SDS011;23311;48.776;9.162;2022-07-29T13:49:20;10.23;;;9.73;;
291;SDS011;23311;48.776;9.162;2022-07-29T13:51:48;9.23;;;8.73;;
291;SDS011;23311;48.776;9.162;2022-07-29T13:54:17;8.20;;;7.80;;
291;SDS011;23311;48.776;9.162;2022-07-29T13:56:45;8.90;;;8.40;;
291;SDS011;23311;48.776;9.162;2022-07-29T13:59:13;8.47;;;8.00;;
291;SDS011;23311;48.776;9.162;2022-07-29T14:01:42;7.97;;;7.47;;
291;SDS011;23311;48.776;9.162;2022-07-29T14:04:12;7.93;;;7.53;;
291;SDS011;23311;48.776;9.162;2022-07-29T14:06:40;8.33;;;7.90;;
291;SDS011;23311;48.776;9.162;2022-07-29T14:09:08;7.80;;;7.40;;
291;SDS011;23311;48.776;9.162;2022-07-29T14:11:36;6.90;;;6.50;;
291;SDS011;23311;48.776;9.162;2022-07-29T14:14:06;7.70;;;7.30;;
291;SDS011;23311;48.776;9.162;2022-07-29T14:16:34;6.97;;;6.57;;
291;SDS011;23311;48.776;9.162;2022-07-29T14:19:09;7.07;;;6.67;;
291;SDS011;23311;48.776;9.162;2022-07-29T14:21:37;7.10;;;6.70;;
291;SDS011;23311;48.776;9.162;2022-07-29T14:24:06;6.93;;;6.53;;
291;SDS011;23311;48.776;9.162;2022-07-29T14:26:46;7.37;;;6.97;;
291;SDS011;23311;48.776;9.162;2022-07-29T14:29:15;7.73;;;7.33;;
291;SDS011;23311;48.776;9.162;2022-07-29T14:31:43;7.00;;;6.60;;
291;SDS011;23311;48.776;9.162;2022-07-29T14:34:13;7.03;;;6.63;;
291;SDS011;23311;48.776;9.162;2022-07-29T14:36:42;6.80;;;6.40;;
291;SDS011;23311;48.776;9.162;2022-07-29T14:39:10;6.97;;;6.57;;
291;SDS011;23311;48.776;9.162;2022-07-29T14:41:38;7.20;;;6.80;;
291;SDS011;23311;48.776;9.162;2022-07-29T14:44:06;7.50;;;7.10;;
291;SDS011;23311;48.776;9.162;2022-07-29T14:46:34;8.63;;;7.60;;
291;SDS011;23311;48.776;9.162;2022-07-29T14:49:02;7.37;;;6.97;;
291;SDS011;23311;48.776;9.162;2022-07-29T14:51:36;6.27;;;5.93;;
291;SDS011;23311;48.776;9.162;2022-07-29T14:54:05;6.43;;;6.07;;
291;SDS011;23311;48.776;9.162;2022-07-29T14:56:33;6.50;;;6.10;;
291;SDS011;23311;48.776;9.162;2022-07-29T14:59:03;6.17;;;5.87;;
291;SDS011;23311;48.776;9.162;2022-07-29T15:01:32;6.17;;;5.87;;
291;SDS011;23311;48.776;9.162;2022-07-29T15:04:00;7.50;;;7.10;;
291;SDS011;23311;48.776;9.162;2022-07-29T15:06:28;7.67;;;7.27;;
291;SDS011;23311;48.776;9.162;2022-07-29T15:08:57;6.70;;;6.30;;
291;SDS011;23311;48.776;9.162;2022-07-29T15:11:25;6.70;;;6.30;;
291;SDS011;23311;48.776;9.162;2022-07-29T15:13:54;7.00;;;6.60;;
291;SDS011;23311;48.776;9.162;2022-07-29T15:16:22;7.37;;;6.97;;
291;SDS011;23311;48.776;9.162;2022-07-29T15:18:50;7.20;;;6.73;;
291;SDS011;23311;48.776;9.162;2022-07-29T15:21:18;7.60;;;7.03;;
291;SDS011;23311;48.776;9.162;2022-07-29T15:23:46;7.57;;;7.17;;
291;SDS011;23311;48.776;9.162;2022-07-29T15:26:16;8.80;;;7.40;;
291;SDS011;23311;48.776;9.162;2022-07-29T15:28:44;8.00;;;7.33;;
291;SDS011;23311;48.776;9.162;2022-07-29T15:31:12;7.63;;;7.23;;
291;SDS011;23311;48.776;9.162;2022-07-29T15:33:40;7.63;;;7.23;;
291;SDS011;23311;48.776;9.162;2022-07-29T15:36:08;8.20;;;7.80;;
291;SDS011;23311;48.776;9.162;2022-07-29T15:38:57;7.60;;;7.20;;
291;SDS011;23311;48.776;9.162;2022-07-29T15:41:27;7.10;;;6.70;;
291;SDS011;23311;48.776;9.162;2022-07-29T15:43:55;7.83;;;7.43;;
291;SDS011;23311;48.776;9.162;2022-07-29T15:46:23;7.60;;;7.20;;
291;SDS011;23311;48.776;9.162;2022-07-29T15:49:09;7.93;;;7.30;;
291;SDS011;23311;48.776;9.162;2022-07-29T15:51:37;9.37;;;8.87;;
291;SDS011;23311;48.776;9.162;2022-07-29T15:54:05;8.10;;;7.70;;
291;SDS011;23311;48.776;9.162;2022-07-29T15:56:34;8.47;;;8.00;;